createdAt,value
2023-01-01T00:04:14.925Z,8.70
2023-01-01T00:09:39.380Z,8.70
2023-01-01T00:14:45.091Z,8.70
2023-01-01T00:19:51.734Z,8.70
2023-01-01T00:24:58.537Z,8.50
2023-01-01T00:30:05.915Z,8.70
2023-01-01T00:35:13.366Z,8.70
2023-01-01T00:40:20.251Z,8.80
2023-01-01T00:45:27.251Z,8.80
2023-01-01T00:50:33.906Z,9.10
2023-01-01T00:55:42.833Z,8.80
2023-01-01T01:00:50.028Z,8.80
2023-01-01T01:06:09.100Z,8.60
2023-01-01T01:11:26.129Z,8.70
2023-01-01T01:16:35.866Z,8.70
2023-01-01T01:21:43.369Z,9.10
2023-01-01T01:26:50.638Z,9.10
2023-01-01T01:31:57.466Z,8.90
2023-01-01T01:37:04.511Z,8.80
2023-01-01T01:42:19.398Z,9.00
2023-01-01T01:47:39.610Z,9.10
2023-01-01T01:53:16.223Z,9.20
2023-01-01T01:58:24.121Z,9.20
2023-01-01T02:03:51.914Z,9.00
2023-01-01T02:09:02.389Z,9.00
2023-01-01T02:14:09.343Z,9.10
2023-01-01T02:19:20.710Z,9.10
2023-01-01T02:24:46.678Z,9.10
2023-01-01T02:30:06.188Z,9.10
2023-01-01T02:35:38.894Z,8.90
2023-01-01T02:40:49.272Z,9.10
2023-01-01T02:45:56.767Z,9.00
2023-01-01T02:51:07.948Z,9.10
2023-01-01T02:56:37.036Z,8.80
2023-01-01T03:01:48.145Z,8.60
2023-01-01T03:07:12.938Z,9.00
2023-01-01T03:12:31.497Z,8.80
2023-01-01T03:18:00.648Z,9.00
2023-01-01T03:23:11.538Z,9.00
2023-01-01T03:28:37.443Z,8.80
2023-01-01T03:33:48.458Z,8.80
2023-01-01T03:39:07.458Z,8.80
2023-01-01T03:44:27.449Z,9.10
2023-01-01T03:49:34.721Z,9.20
2023-01-01T03:55:19.133Z,9.30
2023-01-01T04:00:58.836Z,9.40
2023-01-01T04:06:06.067Z,9.50
2023-01-01T04:11:34.570Z,9.50
2023-01-01T04:16:41.416Z,9.10
2023-01-01T04:21:48.120Z,8.80
2023-01-01T04:26:55.512Z,9.10
2023-01-01T04:32:02.204Z,9.20
2023-01-01T04:37:13.110Z,9.10
2023-01-01T04:42:17.200Z,9.30
2023-01-01T04:47:23.802Z,9.40
2023-01-01T04:52:30.527Z,9.40
2023-01-01T04:57:37.209Z,9.40
2023-01-01T05:02:43.964Z,9.40
2023-01-01T05:07:50.684Z,9.40
2023-01-01T05:12:57.371Z,9.50
2023-01-01T05:18:04.043Z,9.40
2023-01-01T05:23:10.735Z,9.40
2023-01-01T05:28:17.415Z,9.50
2023-01-01T05:33:24.613Z,9.60
2023-01-01T05:38:32.072Z,9.50
2023-01-01T05:43:39.277Z,9.40
2023-01-01T05:48:46.682Z,9.30
2023-01-01T05:53:55.542Z,9.30
2023-01-01T05:59:02.272Z,9.20
2023-01-01T06:04:09.825Z,9.10
2023-01-01T06:09:16.561Z,9.00
2023-01-01T06:14:23.315Z,8.80
2023-01-01T06:19:29.970Z,9.00
2023-01-01T06:24:39.124Z,8.70
2023-01-01T06:29:44.890Z,8.90
2023-01-01T06:34:51.700Z,8.80
2023-01-01T06:39:58.378Z,8.80
2023-01-01T06:45:05.523Z,9.00
2023-01-01T06:50:12.209Z,8.80
2023-01-01T06:55:18.893Z,9.20
2023-01-01T07:00:25.575Z,8.70
2023-01-01T07:05:32.268Z,8.70
2023-01-01T07:10:38.923Z,9.10
2023-01-01T07:15:45.650Z,8.90
2023-01-01T07:20:58.834Z,8.80
2023-01-01T07:26:05.245Z,8.80
2023-01-01T07:31:12.984Z,8.80
2023-01-01T07:36:19.758Z,9.30
2023-01-01T07:41:26.479Z,9.50
2023-01-01T07:46:35.126Z,9.60
2023-01-01T07:51:41.779Z,9.70
2023-01-01T07:56:48.437Z,9.70
2023-01-01T08:01:55.244Z,9.70
2023-01-01T08:07:01.953Z,9.50
2023-01-01T08:12:08.759Z,9.50
2023-01-01T08:17:15.595Z,9.50
2023-01-01T08:22:22.309Z,9.50
2023-01-01T08:27:29.022Z,9.50
2023-01-01T08:32:35.663Z,9.60
2023-01-01T08:37:42.358Z,9.50
2023-01-01T08:42:49.087Z,9.50
2023-01-01T08:47:55.763Z,9.60
2023-01-01T08:53:02.773Z,9.70
2023-01-01T08:58:09.559Z,9.70
2023-01-01T09:03:18.934Z,9.80
2023-01-01T09:08:26.525Z,9.90
2023-01-01T09:13:35.138Z,9.90
2023-01-01T09:18:41.830Z,9.80
2023-01-01T09:23:48.523Z,9.90
2023-01-01T09:28:55.420Z,10.10
2023-01-01T09:34:02.196Z,10.00
2023-01-01T09:39:08.859Z,10.20
2023-01-01T09:44:40.629Z,10.30
2023-01-01T09:49:49.804Z,10.30
2023-01-01T09:55:01.275Z,10.20
2023-01-01T10:00:12.714Z,10.40
2023-01-01T10:05:41.605Z,10.20
2023-01-01T10:11:11.984Z,10.30
2023-01-01T10:16:41.041Z,10.40
2023-01-01T10:21:49.777Z,10.70
2023-01-01T10:26:58.302Z,11.00
2023-01-01T10:32:10.785Z,10.90
2023-01-01T10:37:17.871Z,11.10
2023-01-01T10:42:24.579Z,11.10
2023-01-01T10:47:32.920Z,11.30
2023-01-01T10:52:42.996Z,11.30
2023-01-01T10:57:49.685Z,11.70
2023-01-01T11:03:22.886Z,11.70
2023-01-01T11:08:32.346Z,11.80
2023-01-01T11:13:39.891Z,11.70
2023-01-01T11:18:46.997Z,11.70
2023-01-01T11:24:14.370Z,12.00
2023-01-01T11:29:30.238Z,11.90
2023-01-01T11:34:42.700Z,11.70
2023-01-01T11:39:52.855Z,12.00
2023-01-01T11:45:09.910Z,12.00
2023-01-01T11:50:30.618Z,12.20
2023-01-01T11:56:03.279Z,12.30
2023-01-01T12:01:32.431Z,12.20
2023-01-01T12:06:52.975Z,12.30
2023-01-01T12:12:12.644Z,12.30
2023-01-01T12:17:57.097Z,12.50
2023-01-01T12:23:04.587Z,12.50
2023-01-01T12:28:21.723Z,12.50
2023-01-01T12:33:41.503Z,12.60
2023-01-01T12:38:55.610Z,12.60
2023-01-01T12:44:41.275Z,12.40
2023-01-01T12:50:28.880Z,12.50
2023-01-01T12:55:46.943Z,12.60
2023-01-01T13:00:58.363Z,12.30
2023-01-01T13:06:06.646Z,12.20
2023-01-01T13:11:15.478Z,12.20
2023-01-01T13:16:38.264Z,12.10
2023-01-01T13:21:45.396Z,12.00
2023-01-01T13:26:53.388Z,12.00
2023-01-01T13:32:05.651Z,12.30
2023-01-01T13:37:28.533Z,11.90
2023-01-01T13:43:02.386Z,12.00
2023-01-01T13:48:18.406Z,12.00
2023-01-01T13:53:50.353Z,12.10
2023-01-01T13:59:37.329Z,12.00
2023-01-01T14:04:54.373Z,12.10
2023-01-01T14:10:29.289Z,12.10
2023-01-01T14:15:37.877Z,12.00
2023-01-01T14:20:48.173Z,11.70
2023-01-01T14:25:55.432Z,11.70
2023-01-01T14:31:10.806Z,11.80
2023-01-01T14:36:33.361Z,11.80
2023-01-01T14:41:44.633Z,11.70
2023-01-01T14:46:56.081Z,11.60
2023-01-01T14:52:13.133Z,11.40
2023-01-01T14:57:24.427Z,11.30
2023-01-01T15:02:35.289Z,11.20
2023-01-01T15:07:42.515Z,11.10
2023-01-01T15:12:49.607Z,11.10
2023-01-01T15:17:56.328Z,10.90
2023-01-01T15:23:09.819Z,10.70
2023-01-01T15:28:26.225Z,10.50
2023-01-01T15:33:33.745Z,10.80
2023-01-01T15:38:42.252Z,10.60
2023-01-01T15:43:49.098Z,10.40
2023-01-01T15:48:55.877Z,10.30
2023-01-01T15:54:06.730Z,10.20
2023-01-01T15:59:29.725Z,10.20
2023-01-01T16:04:36.530Z,10.10
2023-01-01T16:09:44.100Z,10.00
2023-01-01T16:14:52.705Z,9.80
2023-01-01T16:19:59.774Z,9.70
2023-01-01T16:25:16.592Z,9.60
2023-01-01T16:30:27.290Z,9.60
2023-01-01T16:35:34.531Z,9.50
2023-01-01T16:40:42.283Z,9.60
2023-01-01T16:45:49.125Z,9.50
2023-01-01T16:50:56.328Z,9.50
2023-01-01T16:56:03.089Z,9.60
2023-01-01T17:01:10.301Z,9.50
2023-01-01T17:06:17.373Z,9.40
2023-01-01T17:11:25.212Z,9.20
2023-01-01T17:16:38.556Z,9.10
2023-01-01T17:21:44.334Z,9.10
2023-01-01T17:26:56.978Z,9.10
2023-01-01T17:32:03.587Z,9.40
2023-01-01T17:37:10.364Z,9.20
2023-01-01T17:42:17.623Z,9.10
2023-01-01T17:47:30.741Z,9.10
2023-01-01T17:52:33.037Z,9.00
2023-01-01T17:57:39.787Z,9.10
2023-01-01T18:02:48.580Z,9.40
2023-01-01T18:07:55.598Z,9.50
2023-01-01T18:13:03.119Z,9.50
2023-01-01T18:18:09.890Z,9.50
2023-01-01T18:23:16.664Z,9.20
2023-01-01T18:28:23.543Z,9.20
2023-01-01T18:33:30.705Z,9.50
2023-01-01T18:38:38.578Z,9.80
2023-01-01T18:43:45.371Z,9.50
2023-01-01T18:48:58.639Z,9.30
2023-01-01T18:54:01.233Z,9.10
2023-01-01T18:59:22.795Z,9.30
2023-01-01T19:04:29.952Z,9.20
2023-01-01T19:09:38.317Z,9.00
2023-01-01T19:14:45.232Z,9.10
2023-01-01T19:19:53.232Z,9.00
2023-01-01T19:25:00.228Z,9.00
2023-01-01T19:30:11.392Z,9.10
2023-01-01T19:35:18.498Z,9.20
2023-01-01T19:40:25.455Z,9.70
2023-01-01T19:45:32.259Z,9.50
2023-01-01T19:50:39.133Z,9.40
2023-01-01T19:55:45.904Z,9.40
2023-01-01T20:00:53.579Z,9.30
2023-01-01T20:06:00.218Z,9.50
2023-01-01T20:11:07.475Z,9.90
2023-01-01T20:16:14.430Z,10.00
2023-01-01T20:21:38.368Z,9.80
2023-01-01T20:26:45.055Z,9.60
2023-01-01T20:31:54.326Z,9.80
2023-01-01T20:37:18.956Z,9.80
2023-01-01T20:42:25.753Z,9.40
2023-01-01T20:47:32.885Z,9.50
2023-01-01T20:52:39.961Z,9.40
2023-01-01T20:57:46.665Z,9.40
2023-01-01T21:02:53.761Z,9.50
2023-01-01T21:08:01.142Z,9.50
2023-01-01T21:13:09.205Z,9.50
2023-01-01T21:18:16.276Z,9.50
2023-01-01T21:23:30.137Z,9.50
2023-01-01T21:28:36.817Z,9.30
2023-01-01T21:33:45.325Z,9.40
2023-01-01T21:38:54.159Z,9.40
2023-01-01T21:44:01.498Z,9.20
2023-01-01T21:49:24.041Z,9.10
2023-01-01T21:54:37.494Z,9.00
2023-01-01T21:59:48.428Z,9.00
2023-01-01T22:04:55.390Z,9.30
2023-01-01T22:10:25.324Z,9.20
2023-01-01T22:15:43.243Z,9.30
2023-01-01T22:20:51.092Z,9.20
2023-01-01T22:25:57.840Z,9.00
2023-01-01T22:31:05.104Z,9.20
2023-01-01T22:36:27.144Z,9.10
2023-01-01T22:41:33.792Z,9.00
2023-01-01T22:46:43.218Z,9.10
2023-01-01T22:51:55.062Z,9.20
2023-01-01T22:57:01.841Z,9.10
2023-01-01T23:02:08.974Z,9.10
2023-01-01T23:07:15.817Z,8.80
2023-01-01T23:12:22.437Z,8.90
2023-01-01T23:17:29.386Z,9.00
2023-01-01T23:22:43.033Z,9.10
2023-01-01T23:27:51.482Z,8.90
2023-01-01T23:32:58.464Z,9.00
2023-01-01T23:38:05.534Z,9.10
2023-01-01T23:43:12.458Z,8.90
2023-01-01T23:48:20.362Z,8.90
2023-01-01T23:53:27.428Z,9.10
2023-01-01T23:58:34.186Z,9.30
